Time;durP1;ratioP1;P1;durP2;ratioP2;P2;SDS_P1;SDS_P2;PMS_P1;PMS_P2;Temp;Humidity;BMP_temperature;BMP_pressure;BME280_temperature;BME280_humidity;BME280_pressure;Samples;Min_cycle;Max_cycle;Signal;HPM_P1;HPM_P2
2023/12/03 00:01:23;;;;;;;15.82;7.97;;;;;;;-0.09;66.08;100424.56;4947173;28;20046;-90
2023/12/03 00:03:57;;;;;;;15.38;7.50;;;;;;;-0.06;66.21;100424.44;4941022;28;20055;-91
2023/12/03 00:06:26;;;;;;;20.42;9.27;;;;;;;-0.06;66.34;100434.88;4949237;28;20050;-90
2023/12/03 00:08:58;;;;;;;18.50;8.70;;;;;;;-0.05;66.21;100436.63;4915961;28;20594;-91
2023/12/03 00:11:27;;;;;;;17.92;8.70;;;;;;;-0.09;65.53;100424.56;4960025;28;20066;-90
2023/12/03 00:13:54;;;;;;;19.42;8.80;;;;;;;-0.10;65.74;100422.88;4960770;28;20042;-90
2023/12/03 00:16:24;;;;;;;17.63;8.85;;;;;;;-0.05;66.29;100427.91;4946600;28;20168;-91
2023/12/03 00:18:58;;;;;;;18.48;8.82;;;;;;;-0.05;66.43;100436.63;4970471;28;20422;-92
2023/12/03 00:21:33;;;;;;;18.38;8.65;;;;;;;-0.09;66.79;100434.16;4942540;28;20630;-90
2023/12/03 00:24:04;;;;;;;17.95;7.75;;;;;;;-0.08;66.64;100435.84;4930539;28;20055;-91
2023/12/03 00:26:32;;;;;;;23.15;9.55;;;;;;;-0.05;66.59;100438.34;4907651;28;20475;-90
2023/12/03 00:29:00;;;;;;;19.45;9.10;;;;;;;-0.02;66.50;100433.03;4934270;28;20051;-90
2023/12/03 00:31:35;;;;;;;23.17;9.40;;;;;;;-0.10;66.50;100435.94;4931402;28;20061;-90
2023/12/03 00:34:06;;;;;;;20.40;9.98;;;;;;;-0.14;66.49;100431.72;4936875;28;20423;-90
2023/12/03 00:36:45;;;;;;;23.20;9.30;;;;;;;-0.10;66.92;100445.50;4918159;28;20105;-90
2023/12/03 00:39:16;;;;;;;18.95;9.38;;;;;;;-0.09;67.29;100442.00;4930216;28;20166;-90
2023/12/03 00:41:51;;;;;;;24.83;8.80;;;;;;;-0.06;67.50;100440.13;4945564;28;20357;-90
2023/12/03 00:44:21;;;;;;;19.95;8.88;;;;;;;-0.05;67.21;100446.19;4947536;28;20069;-92
2023/12/03 00:46:48;;;;;;;22.08;9.35;;;;;;;-0.08;67.01;100441.91;4942695;28;20567;-90
2023/12/03 00:49:16;;;;;;;17.88;8.85;;;;;;;-0.09;67.18;100440.22;4929049;28;20074;-90
2023/12/03 00:51:43;;;;;;;21.08;8.95;;;;;;;-0.05;67.18;100444.44;4935795;28;20538;-90
2023/12/03 00:54:13;;;;;;;21.60;9.15;;;;;;;-0.03;67.48;100450.44;4935957;28;20142;-91
2023/12/03 00:56:47;;;;;;;20.92;9.75;;;;;;;-0.05;67.50;100446.19;4935569;28;20526;-90
2023/12/03 00:59:20;;;;;;;18.63;8.75;;;;;;;-0.09;67.50;100444.59;4929177;28;20049;-90
2023/12/03 01:01:52;;;;;;;20.02;9.02;;;;;;;-0.07;67.35;100448.88;4912778;28;20137;-90
2023/12/03 01:04:20;;;;;;;23.42;9.77;;;;;;;-0.08;67.59;100447.13;4947501;28;20414;-91
2023/12/03 01:06:51;;;;;;;22.65;8.85;;;;;;;-0.09;67.68;100453.28;4929141;28;20053;-90
2023/12/03 01:09:23;;;;;;;21.85;9.90;;;;;;;-0.09;67.71;100455.03;4909211;28;20049;-89
2023/12/03 01:11:56;;;;;;;22.17;8.80;;;;;;;-0.09;67.68;100455.88;4924309;28;20067;-91
2023/12/03 01:14:25;;;;;;;20.15;9.38;;;;;;;-0.08;67.61;100452.34;4917827;28;20453;-91
2023/12/03 01:16:52;;;;;;;25.10;10.70;;;;;;;-0.06;67.83;100458.38;4942647;28;20047;-91
2023/12/03 01:19:26;;;;;;;22.58;10.00;;;;;;;-0.06;68.05;100462.75;4924787;28;20073;-90
2023/12/03 01:21:56;;;;;;;25.92;10.45;;;;;;;-0.06;68.17;100475.81;4946400;28;20089;-90
2023/12/03 01:24:30;;;;;;;22.52;10.75;;;;;;;-0.10;68.61;100467.25;4918632;28;20046;-92
2023/12/03 01:27:04;;;;;;;23.48;10.95;;;;;;;-0.12;68.55;100473.44;4940968;28;20047;-89
2023/12/03 01:29:33;;;;;;;26.35;10.65;;;;;;;-0.07;68.66;100477.59;4935465;28;20129;-90
2023/12/03 01:32:07;;;;;;;28.42;11.93;;;;;;;-0.11;68.43;100475.13;4922485;28;20057;-90
2023/12/03 01:34:43;;;;;;;23.55;11.45;;;;;;;-0.18;68.45;100473.63;4937965;28;20054;-90
2023/12/03 01:37:19;;;;;;;28.80;11.70;;;;;;;-0.23;68.50;100477.25;4929995;28;20605;-91
2023/12/03 01:39:51;;;;;;;28.83;11.43;;;;;;;-0.22;69.34;100478.09;4946015;28;20555;-90
2023/12/03 01:42:25;;;;;;;23.70;10.35;;;;;;;-0.22;69.20;100489.38;4927316;28;20507;-90
2023/12/03 01:44:59;;;;;;;27.52;11.20;;;;;;;-0.21;69.43;100492.84;4907271;28;20047;-90
2023/12/03 01:47:30;;;;;;;25.15;11.40;;;;;;;-0.22;69.08;100498.97;4927784;28;20117;-91
2023/12/03 01:50:12;;;;;;;32.17;12.52;;;;;;;-0.17;69.30;100504.06;4911708;28;20050;-90
2023/12/03 01:52:48;;;;;;;25.60;11.93;;;;;;;-0.13;69.43;100503.03;4906073;28;20051;-90
2023/12/03 01:55:23;;;;;;;30.92;11.27;;;;;;;-0.13;68.85;100506.47;4933110;28;20070;-90
2023/12/03 01:58:00;;;;;;;29.90;12.02;;;;;;;-0.11;68.65;100503.84;4914394;28;20105;-91
2023/12/03 02:00:29;;;;;;;27.15;12.00;;;;;;;-0.13;69.00;100509.09;4953822;28;20057;-90
2023/12/03 02:03:02;;;;;;;27.17;11.43;;;;;;;-0.12;68.84;100515.19;4935800;28;20122;-90
2023/12/03 02:05:41;;;;;;;26.50;11.90;;;;;;;-0.15;69.28;100516.16;4897215;28;20122;-90
2023/12/03 02:08:23;;;;;;;27.23;12.30;;;;;;;-0.16;69.34;100519.66;4901768;28;20070;-91
2023/12/03 02:11:03;;;;;;;28.40;12.38;;;;;;;-0.16;69.31;100514.44;4868327;28;20104;-92
2023/12/03 02:13:38;;;;;;;31.95;13.38;;;;;;;-0.28;70.32;100523.53;4899656;28;20050;-91
2023/12/03 02:16:09;;;;;;;33.33;14.40;;;;;;;-0.26;70.69;100528.69;4960363;28;22051;-90
2023/12/03 02:18:42;;;;;;;33.33;14.50;;;;;;;-0.30;70.26;100529.69;4910308;28;20567;-91
2023/12/03 02:21:14;;;;;;;35.65;14.88;;;;;;;-0.33;70.59;100529.78;4933898;28;20050;-91
2023/12/03 02:23:51;;;;;;;35.00;14.90;;;;;;;-0.38;70.76;100522.13;4913478;28;20049;-89
2023/12/03 02:26:25;;;;;;;32.33;13.20;;;;;;;-0.31;70.32;100528.81;4915829;28;20368;-90
2023/12/03 02:29:04;;;;;;;31.20;13.00;;;;;;;-0.29;70.04;100529.63;4931481;28;20575;-89
2023/12/03 02:31:39;;;;;;;30.70;13.95;;;;;;;-0.27;70.54;100521.78;4911553;28;20058;-91
2023/12/03 02:34:09;;;;;;;30.35;13.82;;;;;;;-0.34;71.39;100521.09;4955942;28;20050;-91
2023/12/03 02:36:46;;;;;;;27.98;13.23;;;;;;;-0.29;71.01;100526.19;4875364;28;20068;-89
2023/12/03 02:39:29;;;;;;;31.63;13.75;;;;;;;-0.35;70.99;100524.63;4893990;28;20487;-90
2023/12/03 02:42:18;;;;;;;34.58;14.23;;;;;;;-0.41;71.15;100531.78;4919820;28;20054;-91
2023/12/03 02:44:57;;;;;;;33.60;13.82;;;;;;;-0.42;72.40;100528.34;4885649;28;20076;-90
2023/12/03 02:47:38;;;;;;;34.78;13.43;;;;;;;-0.41;72.42;100526.56;4911417;28;20050;-91
2023/12/03 02:50:17;;;;;;;38.65;14.43;;;;;;;-0.43;72.81;100526.63;4915110;28;20466;-92
2023/12/03 02:52:50;;;;;;;29.55;13.10;;;;;;;-0.40;72.40;100528.28;4862044;28;20054;-90
2023/12/03 02:55:35;;;;;;;34.20;14.57;;;;;;;-0.46;72.89;100535.41;4862662;28;20046;-91
2023/12/03 02:58:15;;;;;;;36.67;15.00;;;;;;;-0.41;73.29;100535.25;4837822;28;20539;-90
2023/12/03 03:00:48;;;;;;;34.97;14.52;;;;;;;-0.43;73.06;100531.84;4907888;28;20053;-91
2023/12/03 03:03:34;;;;;;;34.58;13.23;;;;;;;-0.49;73.01;100534.66;4865834;28;20126;-90
2023/12/03 03:06:17;;;;;;;33.70;14.32;;;;;;;-0.42;73.27;100543.13;4849898;28;20043;-90
2023/12/03 03:09:07;;;;;;;38.55;15.45;;;;;;;-0.44;72.62;100540.56;4892740;28;20803;-90
2023/12/03 03:12:00;;;;;;;32.90;14.87;;;;;;;-0.45;72.94;100539.72;4881941;28;20051;-90
2023/12/03 03:14:34;;;;;;;32.30;13.90;;;;;;;-0.40;72.63;100538.72;4875033;28;20129;-90
2023/12/03 03:17:12;;;;;;;37.17;16.17;;;;;;;-0.42;72.13;100537.91;4865844;28;20341;-90
2023/12/03 03:20:16;;;;;;;;;;;;;;;;;;;;;
2023/12/03 03:23:08;;;;;;;36.28;15.20;;;;;;;-0.42;73.56;100550.97;4835467;28;20573;-90
2023/12/03 03:25:46;;;;;;;43.13;16.80;;;;;;;-0.44;73.30;100553.59;4919418;28;20050;-90
2023/12/03 03:28:14;;;;;;;35.13;15.70;;;;;;;-0.40;73.19;100551.78;4946313;28;20058;-90
2023/12/03 03:30:52;;;;;;;40.30;16.70;;;;;;;-0.36;73.41;100549.00;4940890;28;20053;-90
2023/12/03 03:33:37;;;;;;;38.25;15.25;;;;;;;-0.35;72.90;100545.50;4860472;28;20129;-90
2023/12/03 03:36:35;;;;;;;37.25;14.77;;;;;;;-0.33;73.01;100555.88;4856173;28;20051;-90
2023/12/03 03:39:27;;;;;;;40.42;16.38;;;;;;;-0.35;73.15;100553.34;4856993;28;20061;-90
2023/12/03 03:42:06;;;;;;;43.45;17.85;;;;;;;-0.31;72.73;100554.91;4862326;28;20468;-90
2023/12/03 03:44:53;;;;;;;35.67;16.92;;;;;;;-0.38;73.18;100549.94;4894145;28;20053;-91
2023/12/03 03:47:54;;;;;;;41.33;16.70;;;;;;;-0.39;73.85;100551.72;4846293;28;20058;-90
2023/12/03 03:50:41;;;;;;;34.88;15.18;;;;;;;-0.35;73.61;100552.50;4866565;28;20553;-90
2023/12/03 03:54:01;;;;;;;37.55;14.55;;;;;;;-0.41;73.67;100548.28;4858652;28;20145;-91
2023/12/03 03:56:54;;;;;;;37.17;14.15;;;;;;;-0.40;74.65;100563.06;4863256;28;20046;-90
2023/12/03 03:59:36;;;;;;;39.83;16.10;;;;;;;-0.44;75.61;100558.84;4871469;28;20463;-91
2023/12/03 04:02:12;;;;;;;40.28;16.20;;;;;;;-0.43;75.29;100550.13;4851586;28;20081;-90
2023/12/03 04:05:00;;;;;;;38.17;16.33;;;;;;;-0.45;75.22;100555.38;4870208;28;20097;-90
2023/12/03 04:07:56;;;;;;;43.00;15.63;;;;;;;-0.40;74.89;100562.22;4890265;28;20058;-90
2023/12/03 04:10:47;;;;;;;36.92;16.02;;;;;;;-0.40;74.07;100562.22;4894724;28;20527;-92
2023/12/03 04:13:41;;;;;;;44.25;15.75;;;;;;;-0.38;73.59;100556.03;4888779;28;20060;-90
2023/12/03 04:16:23;;;;;;;41.47;16.40;;;;;;;-0.41;74.04;100558.72;4928254;28;20047;-90
2023/12/03 04:19:11;;;;;;;40.72;16.08;;;;;;;-0.35;74.26;100569.00;4903226;28;20055;-90
2023/12/03 04:22:08;;;;;;;36.38;15.40;;;;;;;-0.39;74.31;100574.34;4918939;28;20362;-90
2023/12/03 04:25:08;;;;;;;39.97;17.33;;;;;;;-0.44;74.06;100561.44;4856384;28;20083;-89
2023/12/03 04:28:09;;;;;;;41.88;17.23;;;;;;;-0.39;73.86;100554.31;4931365;28;20550;-90
2023/12/03 04:30:56;;;;;;;41.10;15.70;;;;;;;-0.41;74.46;100556.13;4861389;28;20050;-91
2023/12/03 04:33:39;;;;;;;43.17;17.65;;;;;;;-0.36;74.00;100567.25;4851419;28;20043;-90
2023/12/03 04:36:48;;;;;;;42.58;17.52;;;;;;;-0.40;74.43;100562.22;4791481;28;20054;-90
2023/12/03 04:39:35;;;;;;;41.47;15.55;;;;;;;-0.40;74.20;100570.03;4840146;28;20524;-90
2023/12/03 04:43:05;;;;;;;39.40;15.75;;;;;;;-0.36;74.54;100577.69;4852437;28;20422;-90
2023/12/03 04:45:44;;;;;;;42.63;16.35;;;;;;;-0.39;74.76;100576.97;4903088;28;20046;-90
2023/12/03 04:48:38;;;;;;;42.15;16.83;;;;;;;-0.44;74.13;100570.13;4950048;28;20058;-91
2023/12/03 04:51:35;;;;;;;43.10;17.00;;;;;;;-0.36;73.81;100577.69;4838003;28;20531;-90
2023/12/03 04:54:36;;;;;;;45.13;16.48;;;;;;;-0.39;74.23;100575.19;4846953;28;20050;-90
2023/12/03 04:57:44;;;;;;;39.22;15.55;;;;;;;-0.44;74.80;100582.31;4840726;28;20423;-91
2023/12/03 05:00:48;;;;;;;43.97;16.88;;;;;;;-0.42;75.63;100600.53;4848381;28;20129;-90
2023/12/03 05:03:39;;;;;;;41.95;17.00;;;;;;;-0.41;74.74;100599.63;4833542;28;20134;-90
2023/12/03 05:07:15;;;;;;;45.67;16.98;;;;;;;-0.40;73.64;100606.56;4832162;28;20061;-90
2023/12/03 05:09:58;;;;;;;42.38;15.75;;;;;;;-0.40;73.70;100606.56;4880949;28;20078;-91
2023/12/03 05:12:59;;;;;;;41.35;16.88;;;;;;;-0.32;73.70;100617.63;4856960;28;20510;-92
2023/12/03 05:16:01;;;;;;;41.72;16.45;;;;;;;-0.35;73.08;100615.97;4854457;28;20054;-91
2023/12/03 05:19:08;;;;;;;43.60;16.75;;;;;;;-0.33;72.93;100618.50;4845908;28;20047;-90
2023/12/03 05:22:29;;;;;;;39.88;15.25;;;;;;;-0.27;72.66;100613.13;4868038;28;20557;-90
2023/12/03 05:25:44;;;;;;;;;;;;;;;;;;;;;
2023/12/03 05:28:52;;;;;;;43.97;17.13;;;;;;;-0.27;71.32;100615.72;4839749;28;22720;-91
2023/12/03 05:32:27;;;;;;;45.50;16.90;;;;;;;-0.31;71.09;100609.72;4814487;28;21416;-91
2023/12/03 05:35:30;;;;;;;40.45;16.35;;;;;;;-0.26;70.15;100609.59;4859585;28;20181;-90
2023/12/03 05:38:44;;;;;;;43.28;16.35;;;;;;;-0.31;69.48;100621.94;4825537;28;20974;-90
2023/12/03 05:42:15;;;;;;;41.47;15.75;;;;;;;-0.26;69.84;100627.84;4848421;28;21227;-90
2023/12/03 05:45:20;;;;;;;44.70;16.50;;;;;;;-0.25;70.62;100626.97;4841944;28;20172;-91
2023/12/03 05:48:41;;;;;;;40.42;15.30;;;;;;;-0.30;70.21;100631.47;4859913;28;20118;-89
2023/12/03 05:51:48;;;;;;;41.50;16.77;;;;;;;-0.31;69.11;100630.59;4884828;28;20046;-92
2023/12/03 05:54:47;;;;;;;41.38;15.27;;;;;;;-0.30;69.93;100637.53;4859296;28;20070;-90
2023/12/03 05:57:51;;;;;;;48.08;16.98;;;;;;;-0.30;69.74;100636.69;4864302;28;20054;-90
2023/12/03 06:01:11;;;;;;;45.15;17.00;;;;;;;-0.35;69.28;100643.81;4791245;28;20451;-91
2023/12/03 06:04:23;;;;;;;40.38;15.88;;;;;;;-0.36;70.09;100647.31;4877706;28;20047;-92
2023/12/03 06:07:30;;;;;;;44.40;16.02;;;;;;;-0.36;70.03;100647.31;4878483;28;20046;-90
2023/12/03 06:10:25;;;;;;;43.00;16.63;;;;;;;-0.36;70.14;100650.75;4845033;28;20136;-93
2023/12/03 06:13:24;;;;;;;42.85;15.18;;;;;;;-0.34;69.70;100651.56;4845747;28;20050;-90
2023/12/03 06:16:41;;;;;;;54.63;19.88;;;;;;;-0.34;69.59;100658.56;4839988;28;21029;-90
2023/12/03 06:19:20;;;;;;;58.92;21.75;;;;;;;-0.34;69.43;100655.94;4869190;28;20051;-90
2023/12/03 06:22:14;;;;;;;45.08;17.60;;;;;;;-0.45;69.59;100654.53;4821647;28;20134;-91
2023/12/03 06:25:42;;;;;;;44.83;16.40;;;;;;;-0.41;70.62;100663.09;4847464;28;20243;-89
2023/12/03 06:29:16;;;;;;;46.22;17.20;;;;;;;-0.39;70.15;100671.75;4815992;28;20089;-90
2023/12/03 06:32:26;;;;;;;45.75;16.52;;;;;;;-0.54;70.47;100664.38;4857185;28;20047;-92
2023/12/03 06:35:52;;;;;;;43.00;16.63;;;;;;;-0.57;69.36;100670.53;4833977;28;20911;-91
2023/12/03 06:39:32;;;;;;;45.35;17.35;;;;;;;-0.56;70.41;100671.38;4806680;28;20180;-90
2023/12/03 06:42:23;;;;;;;41.47;16.83;;;;;;;-0.70;71.23;100667.41;4888641;28;20047;-90
2023/12/03 06:50:52;;;;;;;42.38;16.52;;;;;;;-0.84;73.00;100673.91;4868535;28;20157;-90
2023/12/03 06:54:35;;;;;;;44.13;15.55;;;;;;;-0.93;71.72;100675.88;4861154;28;21106;-89
2023/12/03 06:58:59;;;;;;;;;;;;;;;;;;;;;
2023/12/03 07:02:09;;;;;;;43.60;18.20;;;;;;;-0.98;73.30;100685.59;4962969;28;20108;-85
2023/12/03 07:04:37;;;;;;;42.10;17.80;;;;;;;-1.05;73.01;100676.22;4939484;28;20038;-85
2023/12/03 07:07:04;;;;;;;54.80;19.40;;;;;;;-1.06;72.92;100677.13;4936650;28;20051;-86
2023/12/03 07:09:31;;;;;;;46.75;18.50;;;;;;;-1.12;73.54;100685.97;4946611;28;20083;-86
2023/12/03 07:12:07;;;;;;;49.72;19.80;;;;;;;-1.11;73.46;100690.28;4962521;28;22505;-86
2023/12/03 07:14:34;;;;;;;49.97;19.08;;;;;;;-1.08;73.80;100685.88;4934346;28;20076;-86
2023/12/03 07:17:00;;;;;;;47.08;18.45;;;;;;;-1.13;73.72;100684.25;4950557;28;20097;-85
2023/12/03 07:19:27;;;;;;;49.28;19.40;;;;;;;-1.13;73.32;100694.66;4937772;28;20062;-85
2023/12/03 07:21:54;;;;;;;60.20;21.52;;;;;;;-1.10;73.17;100685.91;4933605;28;20383;-86
2023/12/03 07:24:21;;;;;;;72.75;26.35;;;;;;;-1.20;74.03;100689.66;4964284;28;20050;-85
2023/12/03 07:26:48;;;;;;;59.88;23.17;;;;;;;-1.11;73.94;100700.72;4948581;28;20055;-86
2023/12/03 07:29:18;;;;;;;48.58;19.65;;;;;;;-1.19;74.66;100702.66;4948293;28;20051;-86
2023/12/03 07:31:45;;;;;;;57.53;21.98;;;;;;;-1.22;74.12;100704.47;4934647;28;20051;-85
2023/12/03 07:34:12;;;;;;;56.88;22.50;;;;;;;-1.18;74.19;100712.19;4952293;28;20474;-86
2023/12/03 07:36:39;;;;;;;59.88;25.23;;;;;;;-1.09;74.14;100705.88;4935596;28;20513;-86
2023/12/03 07:39:06;;;;;;;65.68;25.30;;;;;;;-1.18;74.06;100708.72;4924672;28;20046;-85
2023/12/03 07:41:32;;;;;;;57.33;21.58;;;;;;;-1.16;74.28;100707.78;4948681;28;20441;-86
2023/12/03 07:43:59;;;;;;;56.15;20.90;;;;;;;-1.15;74.66;100708.63;4963147;28;20054;-85
2023/12/03 07:46:26;;;;;;;52.22;19.77;;;;;;;-1.15;74.81;100711.25;4964467;28;20059;-86
2023/12/03 07:48:53;;;;;;;51.20;19.45;;;;;;;-1.12;74.26;100708.56;4936494;28;20047;-86
2023/12/03 07:51:20;;;;;;;48.40;19.77;;;;;;;-1.15;74.40;100706.88;4953051;28;20071;-85
2023/12/03 07:53:47;;;;;;;66.60;22.40;;;;;;;-1.18;74.37;100717.38;4963176;28;20401;-85
2023/12/03 07:56:14;;;;;;;58.35;21.13;;;;;;;-1.16;74.36;100720.81;4951358;28;20051;-86
2023/12/03 07:58:41;;;;;;;61.15;22.88;;;;;;;-1.03;73.90;100723.97;4933590;28;20487;-85
2023/12/03 08:01:08;;;;;;;57.95;21.98;;;;;;;-1.02;74.29;100724.81;4952623;28;20066;-85
2023/12/03 08:03:34;;;;;;;50.45;19.35;;;;;;;-1.05;74.22;100725.75;4936181;28;20078;-85
2023/12/03 08:06:01;;;;;;;45.65;18.85;;;;;;;-0.93;73.82;100735.00;4953659;28;20075;-85
2023/12/03 08:08:28;;;;;;;51.78;19.50;;;;;;;-0.89;73.83;100731.41;4951234;28;20050;-85
2023/12/03 08:10:55;;;;;;;47.78;19.75;;;;;;;-0.92;74.08;100732.34;4952042;28;20066;-85
2023/12/03 08:13:21;;;;;;;49.78;19.70;;;;;;;-0.84;73.60;100729.56;4947802;28;20129;-86
2023/12/03 08:15:48;;;;;;;48.40;17.77;;;;;;;-0.88;73.70;100728.75;4951764;28;20498;-86
2023/12/03 08:18:15;;;;;;;53.22;20.23;;;;;;;-0.82;73.07;100732.09;4952189;28;20047;-86
2023/12/03 08:20:42;;;;;;;46.03;19.95;;;;;;;-0.83;72.86;100731.25;4931883;28;20101;-86
2023/12/03 08:23:08;;;;;;;46.80;19.52;;;;;;;-0.80;72.84;100731.16;4952049;28;20059;-86
2023/12/03 08:25:35;;;;;;;48.65;18.77;;;;;;;-0.79;72.78;100726.78;4920270;28;20051;-86
2023/12/03 08:28:05;;;;;;;38.72;17.58;;;;;;;-0.78;72.49;100734.59;4940505;28;20394;-86
2023/12/03 08:30:31;;;;;;;59.83;22.50;;;;;;;-0.81;72.26;100733.84;4934105;28;20071;-86
2023/12/03 08:32:58;;;;;;;70.45;24.77;;;;;;;-0.76;72.58;100735.41;4921444;28;20130;-86
2023/12/03 08:35:25;;;;;;;55.80;21.33;;;;;;;-0.72;72.37;100738.78;4949689;28;20422;-86
2023/12/03 08:37:52;;;;;;;50.88;18.83;;;;;;;-0.67;72.15;100734.28;4923569;28;20083;-86
2023/12/03 08:40:19;;;;;;;51.95;19.20;;;;;;;-0.63;71.71;100740.28;4920696;28;20479;-85
2023/12/03 08:42:46;;;;;;;52.97;19.73;;;;;;;-0.60;72.11;100741.06;4952628;28;20101;-86
2023/12/03 08:45:13;;;;;;;48.20;18.40;;;;;;;-0.56;72.05;100747.03;4940930;28;20054;-86
2023/12/03 08:47:41;;;;;;;42.40;17.70;;;;;;;-0.55;72.03;100739.16;4940005;28;20462;-86
2023/12/03 08:50:08;;;;;;;47.83;18.15;;;;;;;-0.52;71.75;100751.28;4947839;28;20520;-81
2023/12/03 08:52:35;;;;;;;48.35;18.63;;;;;;;-0.51;71.58;100748.63;4951698;28;20051;-83
2023/12/03 08:55:03;;;;;;;44.80;18.67;;;;;;;-0.47;71.71;100752.84;4914095;28;20046;-83
2023/12/03 08:57:30;;;;;;;42.92;17.73;;;;;;;-0.41;71.56;100751.81;4965174;28;20066;-82
2023/12/03 08:59:58;;;;;;;44.85;16.90;;;;;;;-0.43;71.54;100748.41;4932015;28;20386;-83
2023/12/03 09:02:24;;;;;;;46.08;18.08;;;;;;;-0.39;71.55;100747.41;4932794;28;20122;-83
2023/12/03 09:04:51;;;;;;;56.13;20.23;;;;;;;-0.37;71.24;100743.00;4934690;28;20537;-84
2023/12/03 09:07:18;;;;;;;47.20;18.75;;;;;;;-0.36;71.36;100739.50;4946571;28;20078;-83
2023/12/03 09:09:45;;;;;;;43.33;17.20;;;;;;;-0.31;71.05;100737.59;4935758;28;20081;-84
2023/12/03 09:12:13;;;;;;;40.42;16.63;;;;;;;-0.30;71.27;100734.09;4935405;28;20050;-84
2023/12/03 09:14:40;;;;;;;42.13;17.17;;;;;;;-0.29;70.81;100742.78;4919537;28;20137;-85
2023/12/03 09:17:07;;;;;;;38.85;16.10;;;;;;;-0.27;71.24;100741.84;4936274;28;20047;-83
2023/12/03 09:19:34;;;;;;;48.92;19.08;;;;;;;-0.20;71.28;100742.53;4954760;28;20773;-83
2023/12/03 09:22:01;;;;;;;47.80;18.05;;;;;;;-0.18;70.73;100735.47;4934042;28;20116;-84
2023/12/03 09:24:28;;;;;;;39.92;16.40;;;;;;;-0.16;71.09;100735.44;4948362;28;20691;-83
2023/12/03 09:26:54;;;;;;;36.72;16.85;;;;;;;-0.13;71.07;100738.81;4917486;28;20133;-84
2023/12/03 09:29:21;;;;;;;39.65;16.50;;;;;;;-0.09;70.72;100744.81;4948617;28;20059;-81
2023/12/03 09:31:48;;;;;;;41.70;16.45;;;;;;;-0.08;70.64;100742.13;4964195;28;20050;-81
2023/12/03 09:34:15;;;;;;;43.25;15.40;;;;;;;-0.02;70.44;100748.97;4944759;28;20403;-84
2023/12/03 09:36:41;;;;;;;39.85;14.98;;;;;;;-0.01;70.34;100753.25;4937425;28;20047;-84
2023/12/03 09:39:08;;;;;;;41.63;15.65;;;;;;;0.01;70.10;100746.25;4960592;28;20560;-82
2023/12/03 09:41:45;;;;;;;41.65;15.05;;;;;;;-0.01;68.86;100743.66;4934167;28;20047;-81
2023/12/03 09:44:51;;;;;;;36.60;14.57;;;;;;;-0.02;68.71;100744.59;4962661;28;20050;-82
2023/12/03 09:47:22;;;;;;;33.05;14.02;;;;;;;0.05;69.68;100749.59;4890075;29;20068;-81
2023/12/03 09:49:49;;;;;;;35.70;13.82;;;;;;;0.06;68.83;100752.19;4918870;28;20129;-81
2023/12/03 09:52:18;;;;;;;35.90;13.73;;;;;;;0.09;69.13;100752.09;4949275;28;20054;-81
2023/12/03 09:54:46;;;;;;;34.97;14.82;;;;;;;0.12;69.30;100748.53;4937868;28;20388;-81
2023/12/03 09:57:14;;;;;;;37.50;14.10;;;;;;;0.16;69.57;100744.94;4945849;28;20045;-81
2023/12/03 09:59:48;;;;;;;34.33;13.05;;;;;;;0.19;69.04;100750.06;4948197;28;20053;-81
2023/12/03 10:02:15;;;;;;;36.63;14.38;;;;;;;0.19;68.91;100747.44;4931697;28;20039;-81
2023/12/03 10:04:42;;;;;;;34.15;13.63;;;;;;;0.23;69.03;100754.28;4954349;28;20827;-82
2023/12/03 10:07:09;;;;;;;38.33;14.57;;;;;;;0.26;69.28;100751.56;4946621;28;20061;-81
2023/12/03 10:09:38;;;;;;;35.88;13.93;;;;;;;0.28;68.65;100748.91;4933286;28;20130;-82
2023/12/03 10:12:05;;;;;;;33.97;13.85;;;;;;;0.31;68.82;100747.06;4915665;28;20122;-81
2023/12/03 10:14:32;;;;;;;29.35;13.68;;;;;;;0.34;68.89;100735.66;4947155;28;20039;-82
2023/12/03 10:16:59;;;;;;;34.25;12.98;;;;;;;0.34;68.49;100727.81;4947318;28;20070;-81
2023/12/03 10:19:27;;;;;;;34.97;13.52;;;;;;;0.36;68.21;100728.63;4935701;28;20054;-81
2023/12/03 10:21:55;;;;;;;26.70;11.75;;;;;;;0.37;68.32;100733.78;4951776;28;20093;-82
2023/12/03 10:24:22;;;;;;;31.23;13.10;;;;;;;0.37;68.50;100736.41;4963787;28;20086;-82
2023/12/03 10:26:53;;;;;;;33.83;13.25;;;;;;;0.40;68.33;100738.06;4933169;28;20050;-81
2023/12/03 10:29:23;;;;;;;36.67;14.27;;;;;;;0.39;68.30;100732.00;4948685;28;20499;-82
2023/12/03 10:31:50;;;;;;;31.63;13.50;;;;;;;0.43;68.42;100730.13;4961690;28;20081;-83
2023/12/03 10:34:18;;;;;;;34.08;13.60;;;;;;;0.41;67.85;100724.97;4931431;28;20043;-81
2023/12/03 10:36:46;;;;;;;32.10;13.60;;;;;;;0.41;68.03;100731.94;4935068;28;20058;-83
2023/12/03 10:39:17;;;;;;;33.45;13.77;;;;;;;0.45;68.15;100735.31;4921006;28;20054;-82
2023/12/03 10:41:49;;;;;;;32.35;13.25;;;;;;;0.46;67.86;100732.66;4936232;28;20457;-82
2023/12/03 10:44:21;;;;;;;32.25;12.27;;;;;;;0.50;67.97;100734.25;4927552;28;20459;-83
2023/12/03 10:46:48;;;;;;;32.47;13.32;;;;;;;0.51;67.91;100729.88;4935624;28;20093;-82
2023/12/03 10:49:15;;;;;;;32.63;13.63;;;;;;;0.55;68.17;100734.09;4962497;28;20121;-82
2023/12/03 10:51:44;;;;;;;33.90;12.80;;;;;;;0.57;68.11;100730.53;4948436;28;20063;-82
2023/12/03 10:54:11;;;;;;;31.13;13.02;;;;;;;0.58;67.80;100732.22;4931733;28;20501;-82
2023/12/03 10:56:38;;;;;;;37.05;14.15;;;;;;;0.60;68.06;100722.59;4963706;28;20134;-82
2023/12/03 10:59:11;;;;;;;36.75;14.25;;;;;;;0.61;67.59;100720.81;4933128;28;20364;-82
2023/12/03 11:01:42;;;;;;;39.33;14.23;;;;;;;0.60;67.51;100722.59;4918211;28;20101;-82
2023/12/03 11:04:09;;;;;;;33.63;13.23;;;;;;;0.55;66.70;100719.28;4935833;28;20043;-82
2023/12/03 11:06:36;;;;;;;34.78;13.93;;;;;;;0.51;65.77;100714.19;4968030;28;20043;-82
2023/12/03 11:09:04;;;;;;;34.83;14.15;;;;;;;0.52;66.17;100711.53;4922568;28;20401;-82
2023/12/03 11:11:31;;;;;;;31.27;12.95;;;;;;;0.53;66.21;100708.00;4949422;28;20517;-82
2023/12/03 11:13:58;;;;;;;38.40;14.80;;;;;;;0.50;65.88;100708.13;4936165;28;20471;-82
2023/12/03 11:16:29;;;;;;;31.08;13.70;;;;;;;0.49;65.72;100703.81;4965075;28;20517;-82
2023/12/03 11:19:07;;;;;;;36.80;14.20;;;;;;;0.54;66.12;100714.13;4922573;28;20488;-81
2023/12/03 11:21:58;;;;;;;39.78;15.30;;;;;;;0.59;66.68;100709.59;4949653;28;20046;-82
2023/12/03 11:24:47;;;;;;;30.95;14.18;;;;;;;0.59;66.33;100705.22;4948631;28;20644;-82
2023/12/03 11:27:13;;;;;;;35.35;13.98;;;;;;;0.65;66.79;100707.63;4951560;28;20121;-82
2023/12/03 11:29:53;;;;;;;39.63;15.40;;;;;;;0.65;66.39;100696.31;4965387;28;20451;-83
2023/12/03 11:32:22;;;;;;;35.13;13.90;;;;;;;0.70;66.89;100691.78;4950980;28;20478;-82
2023/12/03 11:35:00;;;;;;;35.35;14.65;;;;;;;0.74;66.88;100682.94;4931733;28;20520;-82
2023/12/03 11:37:28;;;;;;;34.50;14.38;;;;;;;0.80;67.38;100680.09;4911440;28;20083;-82
2023/12/03 11:39:56;;;;;;;38.75;15.02;;;;;;;0.86;67.26;100681.63;4931599;28;20050;-81
2023/12/03 11:42:24;;;;;;;32.88;13.85;;;;;;;0.89;67.28;100681.56;4920250;28;20125;-83
2023/12/03 11:45:18;;;;;;;35.33;14.70;;;;;;;0.89;66.53;100678.94;4940592;28;20046;-82
2023/12/03 11:48:04;;;;;;;35.78;13.93;;;;;;;0.90;66.00;100672.78;4951743;28;20157;-81
2023/12/03 11:50:32;;;;;;;35.10;15.05;;;;;;;0.95;66.97;100676.09;4968427;28;20053;-82
2023/12/03 11:52:59;;;;;;;34.10;14.77;;;;;;;0.97;66.74;100673.44;4960809;28;20536;-82
2023/12/03 11:55:27;;;;;;;31.75;13.60;;;;;;;0.97;67.02;100669.06;4950914;28;20494;-82
2023/12/03 11:57:54;;;;;;;30.38;13.68;;;;;;;1.00;67.27;100666.34;4929401;28;20799;-81
2023/12/03 12:00:24;;;;;;;36.42;15.55;;;;;;;1.03;67.27;100662.75;4938810;28;20108;-82
2023/12/03 12:02:51;;;;;;;31.77;14.02;;;;;;;1.05;67.29;100676.63;4920892;28;20054;-81
2023/12/03 12:05:18;;;;;;;32.47;13.85;;;;;;;1.03;67.28;100676.69;4952690;28;20134;-82
2023/12/03 12:07:57;;;;;;;34.85;14.32;;;;;;;1.01;67.04;100662.78;4954592;28;20414;-81
2023/12/03 12:10:25;;;;;;;34.55;13.48;;;;;;;1.01;67.17;100660.19;4934668;28;20043;-81
2023/12/03 12:12:52;;;;;;;32.08;13.63;;;;;;;1.00;67.30;100658.50;4937583;28;20437;-81
2023/12/03 12:15:21;;;;;;;31.98;14.07;;;;;;;0.98;67.12;100656.84;4927406;28;20043;-81
2023/12/03 12:17:47;;;;;;;28.70;13.63;;;;;;;0.96;67.07;100667.34;4931523;28;20054;-82